Terminal Aerodrome Forecast
Issued by NWS Rapid City, SD

Home | Current Version | Previous Version | Text Only | Print | Product List | Glossary Off
Versions: 1 2 3 4 5 6 7 8 9 10 11 12 13 14 15 16 17 18 19 20 21 22 23 24

000
FTUS43 KUNR 262337
TAFRAP
TAF
KRAP 262337Z 2700/2724 36007KT P6SM SCT025
     FM270300 VRB05KT P6SM SCT120
     FM270800 VRB03KT P6SM SKC
      TEMPO 2709/2713 5SM BR BKN010
     FM271300 03008KT P6SM FEW015
     FM271500 08010KT P6SM SCT200=

USA.gov is the U.S. government's official web portal to all federal, state and local government web resources and services.